createdAt,value
2019-04-21T00:03:18.175Z,102190.02
2019-04-21T00:06:59.843Z,102185.55
2019-04-21T00:10:27.188Z,102180.83
2019-04-21T00:13:42.558Z,102180.47
2019-04-21T00:17:00.616Z,102178.95
2019-04-21T00:20:28.870Z,102176.84
2019-04-21T00:24:16.480Z,102178.84
2019-04-21T00:27:47.751Z,102174.47
2019-04-21T00:31:14.084Z,102175.30
2019-04-21T00:34:21.762Z,102161.09
2019-04-21T00:38:09.718Z,102169.09
2019-04-21T00:41:29.652Z,102160.31
2019-04-21T00:44:51.973Z,102153.58
2019-04-21T00:48:25.531Z,102157.33
2019-04-21T00:52:14.484Z,102154.91
2019-04-21T00:55:30.958Z,102152.03
2019-04-21T00:58:46.268Z,102155.51
2019-04-21T01:02:09.156Z,102152.30
2019-04-21T01:05:45.168Z,102153.11
2019-04-21T01:08:59.065Z,102153.71
2019-04-21T01:12:26.902Z,102155.20
2019-04-21T01:15:57.186Z,102150.25
2019-04-21T01:19:13.129Z,102145.91
2019-04-21T01:22:19.724Z,102153.14
2019-04-21T01:25:55.470Z,102146.09
2019-04-21T01:29:29.006Z,102147.94
2019-04-21T01:32:55.802Z,102150.09
2019-04-21T01:36:13.992Z,102145.45
2019-04-21T01:39:48.231Z,102141.58
2019-04-21T01:43:24.902Z,102140.86
2019-04-21T01:46:45.592Z,102141.23
2019-04-21T01:50:02.849Z,102143.93
2019-04-21T01:54:12.518Z,102138.12
2019-04-21T01:57:52.768Z,102141.31
2019-04-21T02:01:21.662Z,102135.77
2019-04-21T02:04:54.259Z,102130.52
2019-04-21T02:08:10.882Z,102130.80
2019-04-21T02:11:35.744Z,102122.56
2019-04-21T02:15:04.624Z,102117.16
2019-04-21T02:18:34.947Z,102113.70
2019-04-21T02:21:43.629Z,102112.37
2019-04-21T02:25:20.125Z,102108.86
2019-04-21T02:32:21.707Z,102108.28
2019-04-21T02:36:12.223Z,102113.92
2019-04-21T02:39:23.106Z,102107.60
2019-04-21T02:42:39.509Z,102108.28
2019-04-21T02:45:56.892Z,102103.48
2019-04-21T02:49:45.385Z,102104.30
2019-04-21T02:53:00.959Z,102095.71
2019-04-21T02:56:20.451Z,102088.81
2019-04-21T02:59:49.362Z,102087.00
2019-04-21T03:07:19.242Z,102075.56
2019-04-21T03:10:53.259Z,102069.44
2019-04-21T03:14:16.771Z,102061.06
2019-04-21T03:17:43.660Z,102056.78
2019-04-21T03:21:08.557Z,102050.10
2019-04-21T03:24:39.929Z,102043.70
2019-04-21T03:31:34.761Z,102047.50
2019-04-21T03:35:37.902Z,102038.28
2019-04-21T03:38:16.743Z,102036.55
2019-04-21T03:41:38.012Z,102024.63
2019-04-21T03:48:30.498Z,102016.86
2019-04-21T03:51:57.226Z,102016.66
2019-04-21T03:55:48.854Z,102021.98
2019-04-21T03:59:03.753Z,102021.53
2019-04-21T04:02:24.402Z,102016.30
2019-04-21T04:06:19.577Z,102010.67
2019-04-21T04:09:54.018Z,102007.06
2019-04-21T04:13:19.724Z,102008.73
2019-04-21T04:16:50.222Z,102010.88
2019-04-21T04:20:09.050Z,102006.39
2019-04-21T04:23:43.809Z,102007.17
2019-04-21T04:27:02.362Z,102012.22
2019-04-21T04:30:21.764Z,102001.56
2019-04-21T04:34:04.984Z,102007.35
2019-04-21T04:40:46.912Z,102001.44
2019-04-21T04:44:11.117Z,101996.09
2019-04-21T04:47:37.088Z,101992.70
2019-04-21T04:51:01.929Z,101991.06
2019-04-21T04:54:39.878Z,101992.41
2019-04-21T05:01:21.476Z,101992.87
2019-04-21T05:08:08.594Z,101988.45
2019-04-21T05:11:40.212Z,101985.95
2019-04-21T05:14:51.707Z,101984.12
2019-04-21T05:18:25.193Z,101980.82
2019-04-21T05:24:58.410Z,101978.87
2019-04-21T05:28:15.233Z,101981.57
2019-04-21T05:32:12.807Z,101973.23
2019-04-21T05:36:09.408Z,101973.61
2019-04-21T05:39:37.941Z,101975.85
2019-04-21T05:43:10.542Z,101978.11
2019-04-21T05:46:32.317Z,101975.91
2019-04-21T05:50:00.890Z,101975.71
2019-04-21T05:56:55.526Z,101974.52
2019-04-21T06:00:23.556Z,101965.19
2019-04-21T06:03:49.162Z,101971.70
2019-04-21T06:07:20.131Z,101968.10
2019-04-21T06:10:38.345Z,101969.61
2019-04-21T06:14:01.420Z,101966.42
2019-04-21T06:17:30.288Z,101973.44
2019-04-21T06:20:54.726Z,101970.84
2019-04-21T06:24:15.742Z,101969.31
2019-04-21T06:27:42.421Z,101966.66
2019-04-21T06:31:14.582Z,101968.09
2019-04-21T06:34:43.835Z,101964.16
2019-04-21T06:37:56.493Z,101958.64
2019-04-21T06:41:26.494Z,101956.67
2019-04-21T06:44:54.040Z,101964.92
2019-04-21T06:48:15.328Z,101960.91
2019-04-21T06:51:48.404Z,101960.98
2019-04-21T06:55:10.310Z,101958.03
2019-04-21T06:58:27.856Z,101958.91
2019-04-21T07:05:15.708Z,101950.56
2019-04-21T07:08:44.645Z,101958.16
2019-04-21T07:12:00.001Z,101958.13
2019-04-21T07:15:30.436Z,101954.39
2019-04-21T07:22:24.543Z,101952.64
2019-04-21T07:25:45.845Z,101953.38
2019-04-21T07:29:17.062Z,101951.91
2019-04-21T07:32:36.517Z,101954.94
2019-04-21T07:36:06.341Z,101950.20
2019-04-21T07:39:25.546Z,101949.83
2019-04-21T07:42:47.782Z,101949.34
2019-04-21T07:46:10.608Z,101947.59
2019-04-21T07:49:52.861Z,101941.09
2019-04-21T07:53:22.784Z,101942.41
2019-04-21T07:56:32.442Z,101938.95
2019-04-21T08:03:37.247Z,101924.11
2019-04-21T08:06:58.219Z,101927.20
2019-04-21T08:10:22.546Z,101922.12
2019-04-21T08:13:48.660Z,101922.67
2019-04-21T08:17:14.340Z,101919.81
2019-04-21T08:20:34.933Z,101913.77
2019-04-21T08:24:04.719Z,101914.14
2019-04-21T08:27:37.109Z,101909.02
2019-04-21T08:30:56.837Z,101908.46
2019-04-21T08:34:25.020Z,101898.12
2019-04-21T08:37:46.068Z,101898.48
2019-04-21T08:41:08.010Z,101894.08
2019-04-21T08:44:44.817Z,101897.18
2019-04-21T08:48:02.751Z,101883.73
2019-04-21T08:51:27.688Z,101888.69
2019-04-21T08:54:55.886Z,101885.23
2019-04-21T08:58:34.028Z,101882.37
2019-04-21T09:02:23.701Z,101881.11
2019-04-21T09:05:47.933Z,101873.59
2019-04-21T09:09:14.382Z,101874.89
2019-04-21T09:12:34.679Z,101869.66
2019-04-21T09:15:58.018Z,101865.95
2019-04-21T09:19:38.511Z,101860.77
2019-04-21T09:22:47.921Z,101860.70
2019-04-21T09:26:18.652Z,101857.83
2019-04-21T09:29:32.408Z,101849.28
2019-04-21T09:32:52.170Z,101849.92
2019-04-21T09:36:17.934Z,101839.87
2019-04-21T09:39:40.977Z,101834.48
2019-04-21T09:43:07.996Z,101838.96
2019-04-21T09:46:29.909Z,101836.30
2019-04-21T09:49:54.321Z,101835.59
2019-04-21T09:53:28.726Z,101831.84
2019-04-21T09:56:52.112Z,101831.01
2019-04-21T10:00:15.213Z,101818.02
2019-04-21T10:03:41.384Z,101818.95
2019-04-21T10:06:58.779Z,101816.88
2019-04-21T10:10:23.089Z,101809.45
2019-04-21T10:13:46.366Z,101808.75
2019-04-21T10:17:25.365Z,101799.20
2019-04-21T10:20:49.183Z,101786.84
2019-04-21T10:24:12.579Z,101782.91
2019-04-21T10:27:36.975Z,101785.02
2019-04-21T10:31:00.785Z,101778.21
2019-04-21T10:34:29.301Z,101767.97
2019-04-21T10:38:03.408Z,101758.53
2019-04-21T10:41:19.270Z,101755.74
2019-04-21T10:44:43.238Z,101752.34
2019-04-21T10:48:07.323Z,101752.42
2019-04-21T10:51:30.911Z,101746.30
2019-04-21T10:55:12.846Z,101742.84
2019-04-21T10:58:24.534Z,101731.24
2019-04-21T11:01:47.767Z,101732.65
2019-04-21T11:05:12.404Z,101721.73
2019-04-21T11:08:41.556Z,101723.16
2019-04-21T11:12:02.003Z,101720.34
2019-04-21T11:15:25.329Z,101715.19
2019-04-21T11:18:48.473Z,101707.95
2019-04-21T11:22:12.664Z,101696.57
2019-04-21T11:25:37.751Z,101702.81
2019-04-21T11:29:01.209Z,101705.04
2019-04-21T11:32:25.230Z,101695.31
2019-04-21T11:35:49.019Z,101693.73
2019-04-21T11:39:31.577Z,101688.98
2019-04-21T11:42:48.097Z,101688.58
2019-04-21T11:46:12.764Z,101680.78
2019-04-21T11:49:36.989Z,101683.46
2019-04-21T11:53:01.158Z,101669.47
2019-04-21T11:56:25.102Z,101666.25
2019-04-21T11:59:48.334Z,101675.76
2019-04-21T12:03:31.720Z,101661.27
2019-04-21T12:07:29.331Z,101657.66
2019-04-21T12:11:11.925Z,101654.05
2019-04-21T12:14:47.998Z,101648.13
2019-04-21T12:18:32.448Z,101637.92
2019-04-21T12:22:31.937Z,101637.77
2019-04-21T12:26:13.844Z,101629.09
2019-04-21T12:30:11.680Z,101621.50
2019-04-21T12:33:56.575Z,101612.57
2019-04-21T12:37:33.034Z,101615.55
2019-04-21T12:41:08.707Z,101615.11
2019-04-21T12:44:45.448Z,101608.64
2019-04-21T12:48:21.929Z,101601.41
2019-04-21T12:52:05.888Z,101601.98
2019-04-21T12:55:49.909Z,101592.32
2019-04-21T12:59:34.531Z,101591.20
2019-04-21T13:03:30.568Z,101584.38
2019-04-21T13:07:13.360Z,101573.80
2019-04-21T13:11:11.487Z,101568.17
2019-04-21T13:14:47.481Z,101555.91
2019-04-21T13:18:30.973Z,101559.58
2019-04-21T13:22:14.191Z,101545.97
2019-04-21T13:25:56.828Z,101541.92
2019-04-21T13:29:32.660Z,101538.05
2019-04-21T13:33:15.538Z,101524.59
2019-04-21T13:36:59.309Z,101516.30
2019-04-21T13:41:22.854Z,101510.00
2019-04-21T13:44:50.987Z,101505.79
2019-04-21T13:48:48.423Z,101498.66
2019-04-21T13:52:31.020Z,101492.64
2019-04-21T13:56:06.977Z,101482.20
2019-04-21T13:59:51.306Z,101479.47
2019-04-21T14:03:35.476Z,101479.06
2019-04-21T14:07:26.029Z,101469.07
2019-04-21T14:11:09.285Z,101460.66
2019-04-21T14:14:52.511Z,101455.05
2019-04-21T14:18:49.947Z,101446.64
2019-04-21T14:22:26.405Z,101432.66
2019-04-21T14:26:01.815Z,101437.28
2019-04-21T14:29:37.773Z,101429.77
2019-04-21T14:33:20.537Z,101427.63
2019-04-21T14:37:04.601Z,101417.40
2019-04-21T14:40:48.189Z,101413.12
2019-04-21T14:44:45.078Z,101406.95
2019-04-21T14:48:48.687Z,101405.02
2019-04-21T14:52:28.733Z,101403.41
2019-04-21T14:56:11.237Z,101399.64
2019-04-21T14:59:35.205Z,101392.70
2019-04-21T15:03:25.903Z,101389.92
2019-04-21T15:07:01.669Z,101385.36
2019-04-21T15:14:42.291Z,101375.88
2019-04-21T15:18:26.438Z,101375.13
2019-04-21T15:22:02.743Z,101368.83
2019-04-21T15:25:38.487Z,101369.13
2019-04-21T15:29:21.098Z,101363.75
2019-04-21T15:33:04.598Z,101364.27
2019-04-21T15:36:48.210Z,101357.56
2019-04-21T15:40:40.406Z,101347.97
2019-04-21T15:44:16.551Z,101338.67
2019-04-21T15:48:13.997Z,101339.77
2019-04-21T15:51:58.017Z,101338.56
2019-04-21T15:56:20.567Z,101331.05
2019-04-21T16:00:30.961Z,101331.48
2019-04-21T16:04:10.733Z,101320.34
2019-04-21T16:07:54.182Z,101323.94
2019-04-21T16:11:42.078Z,101320.00
2019-04-21T16:15:26.144Z,101313.86
2019-04-21T16:19:23.025Z,101312.39
2019-04-21T16:23:00.188Z,101298.52
2019-04-21T16:26:36.098Z,101292.45
2019-04-21T16:30:12.133Z,101282.81
2019-04-21T16:33:54.947Z,101281.63
2019-04-21T16:37:30.239Z,101268.44
2019-04-21T16:41:14.132Z,101272.97
2019-04-21T16:44:57.283Z,101268.64
2019-04-21T16:48:40.157Z,101263.05
2019-04-21T16:52:23.649Z,101253.14
2019-04-21T16:56:33.167Z,101257.92
2019-04-21T17:00:16.347Z,101252.07
2019-04-21T17:04:00.319Z,101249.46
2019-04-21T17:07:47.422Z,101247.68
2019-04-21T17:11:33.651Z,101250.97
2019-04-21T17:15:51.901Z,101244.82
2019-04-21T17:23:15.705Z,101231.73
2019-04-21T17:26:59.560Z,101226.37
2019-04-21T17:30:36.469Z,101224.53
2019-04-21T17:34:22.951Z,101221.16
2019-04-21T17:38:16.402Z,101221.69
2019-04-21T17:42:11.743Z,101223.06
2019-04-21T17:45:57.450Z,101217.20
2019-04-21T17:49:41.132Z,101217.27
2019-04-21T17:53:53.796Z,101210.29
2019-04-21T17:57:58.126Z,101211.96
2019-04-21T18:01:47.429Z,101215.81
2019-04-21T18:05:15.240Z,101214.50
2019-04-21T18:08:38.292Z,101217.45
2019-04-21T18:12:01.566Z,101220.67
2019-04-21T18:15:23.051Z,101221.30
2019-04-21T18:18:32.612Z,101219.39
2019-04-21T18:22:34.791Z,101225.51
2019-04-21T18:25:58.219Z,101226.89
2019-04-21T18:29:15.839Z,101232.48
2019-04-21T18:32:42.359Z,101234.59
2019-04-21T18:36:36.291Z,101234.91
2019-04-21T18:40:06.806Z,101229.91
2019-04-21T18:44:00.441Z,101235.28
2019-04-21T18:47:20.058Z,101230.69
2019-04-21T18:50:51.070Z,101229.22
2019-04-21T18:54:31.381Z,101228.58
2019-04-21T18:57:44.418Z,101221.12
2019-04-21T19:01:11.830Z,101229.02
2019-04-21T19:04:35.133Z,101230.28
2019-04-21T19:08:14.915Z,101224.13
2019-04-21T19:11:42.915Z,101230.67
2019-04-21T19:15:08.530Z,101233.30
2019-04-21T19:18:39.836Z,101242.98
2019-04-21T19:21:59.896Z,101234.36
2019-04-21T19:25:23.596Z,101242.30
2019-04-21T19:28:56.069Z,101242.31
2019-04-21T19:32:17.151Z,101245.40
2019-04-21T19:35:21.459Z,101235.44
2019-04-21T19:38:55.994Z,101237.50
2019-04-21T19:42:19.126Z,101233.33
2019-04-21T19:45:49.787Z,101228.84
2019-04-21T19:49:27.569Z,101234.81
2019-04-21T19:52:41.041Z,101235.98
2019-04-21T19:55:52.139Z,101237.70
2019-04-21T19:59:22.179Z,101226.42
2019-04-21T20:02:42.712Z,101225.86
2019-04-21T20:06:16.889Z,101220.16
2019-04-21T20:09:45.192Z,101221.27
2019-04-21T20:13:26.025Z,101214.92
2019-04-21T20:16:41.609Z,101211.20
2019-04-21T20:19:47.857Z,101207.27
2019-04-21T20:23:18.048Z,101204.72
2019-04-21T20:26:41.583Z,101198.60
2019-04-21T20:30:21.779Z,101195.12
2019-04-21T20:33:55.194Z,101186.70
2019-04-21T20:37:19.365Z,101187.72
2019-04-21T20:40:33.005Z,101184.89
2019-04-21T20:44:06.266Z,101187.11
2019-04-21T20:47:22.892Z,101184.75
2019-04-21T20:50:57.684Z,101179.61
2019-04-21T20:57:43.372Z,101178.94
2019-04-21T21:01:25.450Z,101178.15
2019-04-21T21:04:28.070Z,101175.72
2019-04-21T21:08:10.209Z,101173.09
2019-04-21T21:11:35.323Z,101176.84
2019-04-21T21:14:48.996Z,101167.56
2019-04-21T21:18:44.966Z,101166.64
2019-04-21T21:21:39.998Z,101166.97
2019-04-21T21:25:11.733Z,101164.70
2019-04-21T21:28:32.660Z,101164.25
2019-04-21T21:32:09.754Z,101156.49
2019-04-21T21:35:21.792Z,101157.03
2019-04-21T21:38:54.580Z,101157.88
2019-04-21T21:42:02.826Z,101162.03
2019-04-21T21:45:27.528Z,101155.37
2019-04-21T21:49:01.759Z,101154.94
2019-04-21T21:52:29.721Z,101156.73
2019-04-21T21:55:40.576Z,101157.35
2019-04-21T21:59:13.746Z,101150.83
2019-04-21T22:02:37.131Z,101150.80
2019-04-21T22:06:01.896Z,101148.91
2019-04-21T22:09:20.158Z,101147.84
2019-04-21T22:12:52.884Z,101145.70
2019-04-21T22:16:13.569Z,101135.88
2019-04-21T22:20:01.894Z,101139.89
2019-04-21T22:23:04.084Z,101141.41
2019-04-21T22:26:25.233Z,101138.37
2019-04-21T22:29:53.490Z,101141.91
2019-04-21T22:33:17.360Z,101140.54
2019-04-21T22:36:48.724Z,101141.09
2019-04-21T22:40:16.671Z,101144.39
2019-04-21T22:43:36.447Z,101146.03
2019-04-21T22:47:06.148Z,101142.83
2019-04-21T22:50:30.691Z,101141.49
2019-04-21T22:53:57.614Z,101134.91
2019-04-21T22:57:23.749Z,101135.88
2019-04-21T23:00:51.270Z,101135.84
2019-04-21T23:04:14.030Z,101131.50
2019-04-21T23:07:43.737Z,101134.15
2019-04-21T23:11:06.544Z,101130.06
2019-04-21T23:14:27.967Z,101128.28
2019-04-21T23:18:09.287Z,101121.64
2019-04-21T23:21:30.524Z,101124.28
2019-04-21T23:25:03.384Z,101121.37
2019-04-21T23:28:21.008Z,101124.63
2019-04-21T23:31:51.762Z,101114.16
2019-04-21T23:35:01.655Z,101114.95
2019-04-21T23:38:31.971Z,101115.23
2019-04-21T23:41:51.684Z,101112.09
2019-04-21T23:45:12.490Z,101103.51
2019-04-21T23:48:55.950Z,101109.70
2019-04-21T23:52:08.047Z,101110.03
2019-04-21T23:55:27.349Z,101108.03
2019-04-21T23:58:59.008Z,101106.97
